Time;durP1;ratioP1;P1;durP2;ratioP2;P2;SDS_P1;SDS_P2;PMS_P1;PMS_P2;Temp;Humidity;BMP_temperature;BMP_pressure;BME280_temperature;BME280_humidity;BME280_pressure;Samples;Min_cycle;Max_cycle;Signal;HPM_P1;HPM_P2
2021/05/29 00:01:09;;;;;;;4.32;2.22;;;13.40;99.90;;;;;;5033088;28;20478;-64
2021/05/29 00:03:34;;;;;;;4.07;2.33;;;13.40;99.90;;;;;;5032992;28;20026;-64
2021/05/29 00:06:02;;;;;;;8.02;2.35;;;13.20;99.90;;;;;;5034045;28;20048;-64
2021/05/29 00:08:28;;;;;;;4.70;2.22;;;13.20;99.90;;;;;;5033094;28;20053;-64
2021/05/29 00:10:58;;;;;;;4.57;2.10;;;13.20;99.90;;;;;;5034277;28;20030;-64
2021/05/29 00:13:26;;;;;;;3.28;1.60;;;12.90;99.90;;;;;;5033150;28;20034;-64
2021/05/29 00:15:52;;;;;;;4.30;2.33;;;12.80;99.90;;;;;;5033852;28;20041;-64
2021/05/29 00:18:18;;;;;;;3.58;2.20;;;12.70;99.90;;;;;;5034064;28;20034;-64
2021/05/29 00:20:45;;;;;;;4.88;2.40;;;12.60;99.90;;;;;;5016007;28;20067;-64
2021/05/29 00:23:12;;;;;;;5.15;2.92;;;12.60;99.90;;;;;;5033843;28;20478;-64
2021/05/29 00:25:39;;;;;;;4.72;2.08;;;12.60;99.90;;;;;;5032523;28;20025;-64
2021/05/29 00:28:05;;;;;;;7.60;2.67;;;12.60;99.90;;;;;;5031777;28;20092;-64
2021/05/29 00:30:31;;;;;;;7.10;2.20;;;12.60;99.90;;;;;;5033662;28;20068;-64
2021/05/29 00:32:57;;;;;;;3.53;2.00;;;12.60;99.90;;;;;;5032566;28;20034;-64
2021/05/29 00:35:23;;;;;;;5.20;2.42;;;12.90;99.90;;;;;;5033506;28;20037;-64
2021/05/29 00:37:50;;;;;;;7.95;2.60;;;13.00;99.90;;;;;;5033675;28;20048;-64
2021/05/29 00:40:16;;;;;;;3.38;2.22;;;12.90;99.90;;;;;;5032060;28;20042;-64
2021/05/29 00:42:42;;;;;;;4.43;2.17;;;12.90;99.90;;;;;;5033677;28;20037;-64
2021/05/29 00:45:09;;;;;;;4.65;2.53;;;12.90;99.90;;;;;;5031938;28;20095;-64
2021/05/29 00:47:35;;;;;;;5.97;2.17;;;12.80;99.90;;;;;;5032348;28;20021;-64
2021/05/29 00:50:07;;;;;;;5.35;2.03;;;12.80;99.90;;;;;;5032952;28;20036;-64
2021/05/29 00:52:35;;;;;;;5.65;2.20;;;12.60;99.90;;;;;;5033172;28;20039;-64
2021/05/29 00:55:05;;;;;;;3.47;2.10;;;12.60;99.90;;;;;;5031900;28;20117;-64
2021/05/29 00:57:32;;;;;;;4.75;2.45;;;12.50;99.90;;;;;;5033175;28;20041;-64
2021/05/29 00:59:58;;;;;;;6.00;2.50;;;12.40;99.90;;;;;;5031950;28;20029;-64
2021/05/29 01:02:24;;;;;;;6.10;2.60;;;12.40;99.90;;;;;;5033244;28;20033;-64
2021/05/29 01:04:49;;;;;;;3.47;1.80;;;12.50;99.90;;;;;;5033005;28;20482;-64
2021/05/29 01:07:17;;;;;;;6.13;2.22;;;12.10;99.90;;;;;;5032980;28;20037;-64
2021/05/29 01:09:45;;;;;;;3.83;2.40;;;12.10;99.90;;;;;;5031694;28;20094;-64
2021/05/29 01:12:17;;;;;;;6.70;2.50;;;12.10;99.90;;;;;;5033108;28;20037;-64
2021/05/29 01:14:51;;;;;;;5.15;2.53;;;11.90;99.90;;;;;;5032894;28;20036;-64
2021/05/29 01:17:17;;;;;;;4.55;2.42;;;12.00;99.90;;;;;;5031763;28;20390;-63
2021/05/29 01:19:42;;;;;;;4.28;2.17;;;12.00;99.90;;;;;;5032958;28;20026;-64
2021/05/29 01:22:10;;;;;;;5.88;2.40;;;12.00;99.90;;;;;;5032677;28;20394;-64
2021/05/29 01:24:37;;;;;;;4.65;2.35;;;11.90;99.90;;;;;;5031484;28;20029;-64
2021/05/29 01:27:05;;;;;;;5.25;2.45;;;11.90;99.90;;;;;;5031269;28;20029;-65
2021/05/29 01:29:31;;;;;;;5.10;2.58;;;11.80;99.90;;;;;;5031684;28;20482;-64
2021/05/29 01:32:04;;;;;;;3.95;2.88;;;11.60;99.90;;;;;;5032594;28;20394;-64
2021/05/29 01:34:35;;;;;;;4.13;2.58;;;11.60;99.90;;;;;;5032440;28;20022;-64
2021/05/29 01:37:03;;;;;;;6.18;2.47;;;11.60;99.90;;;;;;5032553;28;20041;-64
2021/05/29 01:39:30;;;;;;;3.75;2.45;;;11.50;99.90;;;;;;5031214;28;20029;-64
2021/05/29 01:41:58;;;;;;;4.60;2.50;;;11.40;99.90;;;;;;5031233;28;20548;-64
2021/05/29 01:44:28;;;;;;;3.92;2.40;;;11.20;99.90;;;;;;5032126;28;20052;-65
2021/05/29 01:46:54;;;;;;;6.20;2.88;;;11.20;99.90;;;;;;5014973;28;20041;-64
2021/05/29 01:49:20;;;;;;;3.28;2.13;;;11.10;99.90;;;;;;5032155;28;20034;-64
2021/05/29 01:51:46;;;;;;;5.65;2.55;;;11.10;99.90;;;;;;5032151;28;20494;-64
2021/05/29 01:54:16;;;;;;;4.20;2.60;;;11.00;99.90;;;;;;5030865;28;20056;-64
2021/05/29 01:56:42;;;;;;;28.60;16.35;;;10.90;99.90;;;;;;5014864;28;20037;-64
2021/05/29 01:59:08;;;;;;;7.80;3.95;;;11.00;99.90;;;;;;5030929;28;20033;-65
2021/05/29 02:01:35;;;;;;;5.43;2.38;;;10.80;99.90;;;;;;5032294;28;20528;-64
2021/05/29 02:04:00;;;;;;;4.93;2.05;;;10.90;99.90;;;;;;5031272;28;20022;-65
2021/05/29 02:06:26;;;;;;;3.25;2.15;;;10.90;99.90;;;;;;5030810;28;20033;-64
2021/05/29 02:08:52;;;;;;;6.50;2.10;;;11.00;99.90;;;;;;5032148;28;20049;-64
2021/05/29 02:11:17;;;;;;;4.38;2.35;;;10.80;99.90;;;;;;5031862;28;20067;-64
2021/05/29 02:13:43;;;;;;;9.02;2.58;;;10.80;99.90;;;;;;5032174;28;20034;-64
2021/05/29 02:16:12;;;;;;;4.47;2.20;;;11.00;99.90;;;;;;5030757;28;20091;-64
2021/05/29 02:18:40;;;;;;;8.93;2.20;;;11.10;99.90;;;;;;5030786;28;20136;-64
2021/05/29 02:21:13;;;;;;;3.28;2.30;;;11.00;99.90;;;;;;5031847;28;20065;-64
2021/05/29 02:23:43;;;;;;;4.18;2.47;;;11.00;99.90;;;;;;5032255;28;20076;-64
2021/05/29 02:26:12;;;;;;;5.72;2.45;;;10.60;99.90;;;;;;5030567;28;20067;-64
2021/05/29 02:28:44;;;;;;;4.78;2.83;;;10.50;99.90;;;;;;5014307;28;20045;-64
2021/05/29 02:31:12;;;;;;;7.25;2.80;;;10.40;99.90;;;;;;5016608;28;20135;-64
2021/05/29 02:33:38;;;;;;;4.28;2.28;;;10.40;99.90;;;;;;5034436;28;20030;-64
2021/05/29 02:36:05;;;;;;;3.63;2.25;;;10.50;99.90;;;;;;5034571;28;20029;-64
2021/05/29 02:38:35;;;;;;;5.57;2.47;;;10.50;99.90;;;;;;5036069;28;20025;-64
2021/05/29 02:41:04;;;;;;;7.15;2.95;;;10.50;99.90;;;;;;5034741;28;20033;-64
2021/05/29 02:43:30;;;;;;;5.03;2.15;;;10.30;99.90;;;;;;5034475;28;20110;-64
2021/05/29 02:45:56;;;;;;;4.10;2.50;;;10.10;99.90;;;;;;5036106;28;20029;-64
2021/05/29 02:48:22;;;;;;;5.13;2.50;;;10.20;99.90;;;;;;5035670;28;20393;-64
2021/05/29 02:50:48;;;;;;;5.63;2.60;;;10.40;99.90;;;;;;5034455;28;20029;-64
2021/05/29 02:53:16;;;;;;;6.20;2.65;;;10.40;99.90;;;;;;5035190;28;20080;-64
2021/05/29 02:55:43;;;;;;;4.00;2.40;;;10.40;99.90;;;;;;5035505;28;20233;-64
2021/05/29 02:58:10;;;;;;;4.15;2.58;;;10.50;99.90;;;;;;5033944;28;20029;-64
2021/05/29 03:00:43;;;;;;;3.97;2.50;;;10.30;99.90;;;;;;5034286;28;20035;-64
2021/05/29 03:03:10;;;;;;;4.70;2.20;;;10.40;99.90;;;;;;5035420;28;20021;-64
2021/05/29 03:05:38;;;;;;;5.18;2.38;;;10.40;99.90;;;;;;5034039;28;20478;-64
2021/05/29 03:08:05;;;;;;;3.22;2.08;;;10.30;99.90;;;;;;5033961;28;20037;-64
2021/05/29 03:10:31;;;;;;;4.18;2.38;;;10.20;99.90;;;;;;5033822;28;20030;-64
2021/05/29 03:12:57;;;;;;;3.75;2.53;;;10.20;99.90;;;;;;5034034;28;20053;-64
2021/05/29 03:15:24;;;;;;;4.43;2.70;;;10.10;99.90;;;;;;5034800;28;20144;-64
2021/05/29 03:17:52;;;;;;;5.25;2.47;;;10.10;99.90;;;;;;5034994;28;20030;-64
2021/05/29 03:20:24;;;;;;;7.95;2.63;;;10.00;99.90;;;;;;5033517;28;20124;-64
2021/05/29 03:22:49;;;;;;;4.80;2.55;;;10.00;99.90;;;;;;5034977;28;20029;-64
2021/05/29 03:25:17;;;;;;;4.53;2.80;;;10.00;99.90;;;;;;5034856;28;20036;-64
2021/05/29 03:27:46;;;;;;;6.07;2.55;;;10.10;99.90;;;;;;5033517;28;20434;-64
2021/05/29 03:30:17;;;;;;;5.55;2.92;;;10.10;99.90;;;;;;5034835;28;20099;-64
2021/05/29 03:32:44;;;;;;;4.90;2.25;;;10.10;99.90;;;;;;5033510;28;20041;-64
2021/05/29 03:35:11;;;;;;;3.88;2.60;;;10.00;99.90;;;;;;5033668;28;20068;-64
2021/05/29 03:37:37;;;;;;;4.75;2.50;;;10.10;99.90;;;;;;5034912;28;20026;-64
2021/05/29 03:40:09;;;;;;;5.32;2.80;;;10.00;99.90;;;;;;5033416;28;20451;-64
2021/05/29 03:42:36;;;;;;;4.93;3.05;;;10.00;99.90;;;;;;5033226;28;20056;-64
2021/05/29 03:45:05;;;;;;;4.28;2.50;;;9.90;99.90;;;;;;5016926;28;20055;-64
2021/05/29 03:47:31;;;;;;;6.63;3.20;;;9.80;99.90;;;;;;5033176;28;20049;-64
2021/05/29 03:49:57;;;;;;;5.95;3.55;;;9.70;99.90;;;;;;5033106;28;20033;-64
2021/05/29 03:52:23;;;;;;;4.47;3.08;;;9.70;99.90;;;;;;5034556;28;20080;-64
2021/05/29 03:54:48;;;;;;;5.88;3.35;;;9.80;99.90;;;;;;5034284;28;20078;-64
2021/05/29 03:57:14;;;;;;;4.25;2.70;;;9.70;99.90;;;;;;5034088;28;20033;-64
2021/05/29 03:59:40;;;;;;;4.70;3.17;;;9.60;99.90;;;;;;5034458;28;20104;-64
2021/05/29 04:02:05;;;;;;;6.63;3.15;;;9.70;99.90;;;;;;5034278;28;20103;-64
2021/05/29 04:04:31;;;;;;;8.00;3.20;;;9.60;99.90;;;;;;5034166;28;20516;-64
2021/05/29 04:06:59;;;;;;;6.45;3.42;;;9.70;99.90;;;;;;5033064;28;20029;-64
2021/05/29 04:09:24;;;;;;;6.60;3.15;;;9.70;99.90;;;;;;5032858;28;20450;-64
2021/05/29 04:11:50;;;;;;;5.97;3.03;;;9.70;99.90;;;;;;5033859;28;20083;-64
2021/05/29 04:14:16;;;;;;;5.45;3.00;;;9.70;99.90;;;;;;5033860;28;20029;-64
2021/05/29 04:16:42;;;;;;;6.13;3.40;;;9.70;99.90;;;;;;5032694;28;20026;-64
2021/05/29 04:19:08;;;;;;;5.90;3.10;;;9.70;99.90;;;;;;5032732;28;20034;-64
2021/05/29 04:21:33;;;;;;;5.40;3.10;;;9.70;99.90;;;;;;5033696;28;20520;-64
2021/05/29 04:23:59;;;;;;;7.47;3.40;;;9.80;99.90;;;;;;5033711;28;20029;-64
2021/05/29 04:26:25;;;;;;;4.57;3.20;;;9.70;99.90;;;;;;5033718;28;20038;-64
2021/05/29 04:28:51;;;;;;;6.53;3.58;;;9.90;99.90;;;;;;5033517;28;20508;-64
2021/05/29 04:31:18;;;;;;;7.03;3.00;;;9.90;99.90;;;;;;5033443;28;20037;-64
2021/05/29 04:33:44;;;;;;;5.60;3.00;;;9.90;99.90;;;;;;5033745;28;20116;-64
2021/05/29 04:36:09;;;;;;;6.97;3.72;;;10.00;99.90;;;;;;5033594;28;20037;-64
2021/05/29 04:38:35;;;;;;;5.68;3.22;;;10.00;99.90;;;;;;5030973;28;20029;-63
2021/05/29 04:41:01;;;;;;;9.18;3.45;;;10.00;99.90;;;;;;5032288;28;20025;-63
2021/05/29 04:43:27;;;;;;;8.50;3.55;;;10.10;99.90;;;;;;5032875;28;20040;-64
2021/05/29 04:45:53;;;;;;;7.68;3.45;;;10.10;99.90;;;;;;5031774;28;20485;-50
2021/05/29 04:48:18;;;;;;;9.25;3.45;;;10.20;99.90;;;;;;5033214;28;20434;-52
2021/05/29 04:53:30;;;;;;;6.90;3.28;;;10.40;99.90;;;;;;5032995;28;20033;-46
2021/05/29 04:55:58;;;;;;;4.40;3.20;;;10.50;99.90;;;;;;5033153;28;20029;-66
2021/05/29 04:58:24;;;;;;;4.43;2.78;;;10.60;99.90;;;;;;5031693;28;20040;-66
2021/05/29 05:00:51;;;;;;;5.43;3.60;;;10.60;99.90;;;;;;5033034;28;20033;-68
2021/05/29 05:03:18;;;;;;;3.95;2.83;;;10.70;99.90;;;;;;5032878;28;20029;-67
2021/05/29 05:05:44;;;;;;;6.85;3.20;;;10.70;99.90;;;;;;5035482;28;20036;-65
2021/05/29 05:08:10;;;;;;;6.20;3.35;;;10.90;99.90;;;;;;5031903;28;20030;-66
2021/05/29 05:10:36;;;;;;;4.53;2.88;;;10.90;99.90;;;;;;5032918;28;20033;-66
2021/05/29 05:13:02;;;;;;;7.15;2.72;;;11.00;99.90;;;;;;5033038;28;20409;-66
2021/05/29 05:15:28;;;;;;;4.93;3.03;;;11.20;99.90;;;;;;5031686;28;20025;-66
2021/05/29 05:17:54;;;;;;;5.93;3.15;;;11.20;99.90;;;;;;5032826;28;20088;-66
2021/05/29 05:20:20;;;;;;;4.68;2.95;;;11.20;99.90;;;;;;5031435;28;20484;-65
2021/05/29 05:22:46;;;;;;;5.30;3.75;;;11.30;99.90;;;;;;5031375;28;20044;-66
2021/05/29 05:25:14;;;;;;;6.00;3.53;;;11.30;99.90;;;;;;5032481;28;20029;-65
2021/05/29 05:27:41;;;;;;;5.13;2.78;;;11.30;99.90;;;;;;5030296;28;20045;-65
2021/05/29 05:30:10;;;;;;;5.90;3.08;;;11.30;99.90;;;;;;5032109;28;20076;-65
2021/05/29 05:32:38;;;;;;;6.35;2.63;;;11.30;99.90;;;;;;5014987;28;20699;-66
2021/05/29 05:35:09;;;;;;;5.03;2.72;;;11.50;99.90;;;;;;5032626;28;20121;-66
2021/05/29 05:37:35;;;;;;;4.23;2.93;;;11.50;99.90;;;;;;5032387;28;20116;-66
2021/05/29 05:40:02;;;;;;;6.30;3.22;;;11.50;99.90;;;;;;5031146;28;20029;-65
2021/05/29 05:42:28;;;;;;;4.13;2.70;;;11.60;99.90;;;;;;5032469;28;20033;-65
2021/05/29 05:44:54;;;;;;;8.00;2.75;;;11.70;99.90;;;;;;5032321;28;20026;-66
2021/05/29 05:47:20;;;;;;;5.70;2.58;;;11.80;99.90;;;;;;5032176;28;20371;-66
2021/05/29 05:49:46;;;;;;;6.60;2.65;;;11.80;99.90;;;;;;5031053;28;20026;-66
2021/05/29 05:52:12;;;;;;;13.00;5.90;;;11.90;99.90;;;;;;5032319;28;20045;-67
2021/05/29 05:54:38;;;;;;;6.00;3.63;;;11.90;99.90;;;;;;5031054;28;20061;-66
2021/05/29 05:57:04;;;;;;;3.78;2.33;;;12.00;99.90;;;;;;5032416;28;20025;-65
2021/05/29 05:59:29;;;;;;;4.50;2.75;;;12.10;99.90;;;;;;5030715;28;20030;-66
2021/05/29 06:01:55;;;;;;;4.32;2.70;;;12.20;99.90;;;;;;5032153;28;20036;-66
2021/05/29 06:04:21;;;;;;;3.67;2.15;;;12.30;99.90;;;;;;5031953;28;20088;-64
2021/05/29 06:06:47;;;;;;;4.90;2.15;;;12.50;99.90;;;;;;5031237;28;20022;-66
2021/05/29 06:09:13;;;;;;;5.20;2.28;;;12.50;99.90;;;;;;5031816;28;20057;-66
2021/05/29 06:11:40;;;;;;;6.70;3.22;;;12.60;99.90;;;;;;5031257;28;20521;-68
2021/05/29 06:19:20;;;;;;;4.50;2.17;;;12.70;99.90;;;;;;5031972;28;20076;-67
2021/05/29 06:21:52;;;;;;;4.07;2.03;;;12.70;99.90;;;;;;5030854;28;20385;-66
2021/05/29 06:24:28;;;;;;;3.90;1.80;;;12.80;99.90;;;;;;5032228;28;20370;-66
2021/05/29 06:26:55;;;;;;;3.97;2.00;;;12.90;99.90;;;;;;5030618;28;20362;-66
2021/05/29 06:29:22;;;;;;;4.57;2.13;;;12.90;99.90;;;;;;5031920;28;20378;-67
2021/05/29 06:31:49;;;;;;;2.70;1.65;;;13.00;99.90;;;;;;5030724;28;20033;-64
2021/05/29 06:34:16;;;;;;;3.03;2.30;;;13.30;99.90;;;;;;5030558;28;20183;-67
2021/05/29 06:36:42;;;;;;;4.40;2.00;;;13.40;99.90;;;;;;5031822;28;20048;-66
2021/05/29 06:39:08;;;;;;;2.92;1.75;;;13.40;99.90;;;;;;5031939;28;20025;-66
2021/05/29 06:41:36;;;;;;;3.50;1.58;;;13.50;99.90;;;;;;5030483;28;20036;-66
2021/05/29 06:44:02;;;;;;;3.60;1.75;;;13.50;99.90;;;;;;5031742;28;20481;-66
2021/05/29 06:46:28;;;;;;;6.18;2.25;;;13.70;99.90;;;;;;5030728;28;20061;-66
2021/05/29 06:48:55;;;;;;;5.78;1.67;;;13.70;99.90;;;;;;5030724;28;20103;-66
2021/05/29 06:51:34;;;;;;;2.72;1.30;;;13.80;99.90;;;;;;5031737;28;20061;-66
2021/05/29 06:54:10;;;;;;;3.70;1.48;;;13.90;99.90;;;;;;5016105;28;20417;-66
2021/05/29 06:59:21;;;;;;;3.35;1.55;;;14.10;99.90;;;;;;5031957;28;20163;-67
2021/05/29 07:01:46;;;;;;;8.05;1.90;;;14.10;99.90;;;;;;5031114;28;20032;-67
2021/05/29 07:04:12;;;;;;;3.75;1.40;;;14.20;99.90;;;;;;5031675;28;20389;-66
2021/05/29 07:06:38;;;;;;;3.33;1.65;;;14.20;99.90;;;;;;5031508;28;20040;-65
2021/05/29 07:09:04;;;;;;;2.38;1.38;;;14.30;99.90;;;;;;5031544;28;20095;-67
2021/05/29 07:11:36;;;;;;;3.25;2.17;;;14.40;99.90;;;;;;5030467;28;20037;-67
2021/05/29 07:14:02;;;;;;;2.67;1.15;;;14.50;99.90;;;;;;5048484;28;20029;-67
2021/05/29 07:16:28;;;;;;;2.13;1.17;;;14.70;99.90;;;;;;5052172;28;20098;-67
2021/05/29 07:18:53;;;;;;;2.35;1.15;;;14.70;99.90;;;;;;5054977;28;20040;-67
2021/05/29 07:21:19;;;;;;;3.33;0.93;;;14.80;99.90;;;;;;5055286;28;20036;-67
2021/05/29 07:23:45;;;;;;;1.90;1.40;;;14.80;99.90;;;;;;5054770;28;20418;-48
2021/05/29 07:26:12;;;;;;;2.75;1.20;;;15.00;99.90;;;;;;5055019;28;20060;-50
2021/05/29 07:28:39;;;;;;;4.50;1.77;;;15.20;99.90;;;;;;5054377;28;20037;-52
2021/05/29 07:31:05;;;;;;;4.88;1.58;;;15.30;99.90;;;;;;5054895;28;20397;-50
2021/05/29 07:33:31;;;;;;;2.42;1.20;;;15.40;99.90;;;;;;5054814;28;20358;-53
2021/05/29 07:35:58;;;;;;;3.28;1.27;;;15.40;99.90;;;;;;5054807;28;20025;-50
2021/05/29 07:38:25;;;;;;;1.85;1.20;;;15.60;99.90;;;;;;5054859;28;20089;-53
2021/05/29 07:40:51;;;;;;;2.40;1.45;;;15.80;99.90;;;;;;5054710;28;20435;-53
2021/05/29 07:43:17;;;;;;;1.50;0.90;;;16.20;99.90;;;;;;5054713;28;20116;-51
2021/05/29 07:45:44;;;;;;;2.55;1.17;;;16.20;99.90;;;;;;5054657;28;20029;-52
2021/05/29 07:48:11;;;;;;;4.10;1.17;;;16.50;99.90;;;;;;5054703;28;20021;-53
2021/05/29 07:50:57;;;;;;;2.60;1.30;;;16.90;99.80;;;;;;5054540;28;20067;-49
2021/05/29 07:53:25;;;;;;;2.33;1.05;;;16.90;99.20;;;;;;5055697;28;20036;-51
2021/05/29 07:55:51;;;;;;;2.50;1.00;;;17.10;99.10;;;;;;5054481;28;20033;-50
2021/05/29 07:58:17;;;;;;;2.60;0.95;;;17.10;98.80;;;;;;5054527;28;20025;-52
2021/05/29 08:00:45;;;;;;;3.17;1.10;;;17.10;99.30;;;;;;5054364;28;20539;-51
2021/05/29 08:03:11;;;;;;;1.90;1.00;;;17.00;98.80;;;;;;5053177;28;20035;-54
2021/05/29 08:05:37;;;;;;;2.22;1.23;;;16.80;98.40;;;;;;5069129;28;20119;-45
2021/05/29 08:08:02;;;;;;;1.55;0.85;;;16.90;99.90;;;;;;5054129;28;20029;-53
2021/05/29 08:10:28;;;;;;;2.97;0.98;;;17.00;98.60;;;;;;5053956;28;20029;-46
2021/05/29 08:12:54;;;;;;;1.73;0.82;;;17.00;98.20;;;;;;5054159;28;20033;-67
2021/05/29 08:15:20;;;;;;;4.72;1.38;;;17.00;98.40;;;;;;5054047;28;20040;-51
2021/05/29 08:17:46;;;;;;;2.97;1.42;;;16.90;98.10;;;;;;5053765;28;20033;-50
2021/05/29 08:20:12;;;;;;;3.03;1.10;;;17.00;98.40;;;;;;5054245;28;20055;-47
2021/05/29 08:22:38;;;;;;;3.90;1.02;;;17.10;97.50;;;;;;5053905;28;20040;-52
2021/05/29 08:25:05;;;;;;;1.70;0.95;;;17.20;97.60;;;;;;5054057;28;20037;-52
2021/05/29 08:27:31;;;;;;;3.15;1.17;;;17.20;96.90;;;;;;5053486;28;20065;-48
2021/05/29 08:29:58;;;;;;;2.78;1.00;;;17.10;96.90;;;;;;5053373;28;20025;-47
2021/05/29 08:32:24;;;;;;;2.03;0.90;;;17.20;96.80;;;;;;5053727;28;20504;-50
2021/05/29 08:34:50;;;;;;;2.42;0.93;;;17.40;97.10;;;;;;5053780;28;20041;-50
2021/05/29 08:37:16;;;;;;;2.30;0.82;;;17.30;96.70;;;;;;5053774;28;20040;-50
2021/05/29 08:39:42;;;;;;;1.90;1.35;;;17.40;94.50;;;;;;5053625;28;20047;-47
2021/05/29 08:42:09;;;;;;;2.20;0.65;;;17.60;95.60;;;;;;5053708;28;20083;-49
2021/05/29 08:44:35;;;;;;;2.30;0.77;;;17.90;94.10;;;;;;5053466;28;20431;-51
2021/05/29 08:47:02;;;;;;;0.98;0.70;;;18.00;93.90;;;;;;5053680;28;20029;-48
2021/05/29 08:49:29;;;;;;;1.95;0.90;;;18.20;93.90;;;;;;5053575;28;20033;-50
2021/05/29 08:51:57;;;;;;;3.38;1.00;;;18.50;92.60;;;;;;5053288;28;20033;-51
2021/05/29 08:54:24;;;;;;;1.08;0.77;;;18.90;91.40;;;;;;5053504;28;20033;-47
2021/05/29 08:56:50;;;;;;;2.30;1.17;;;19.10;90.50;;;;;;5053250;28;20033;-51
2021/05/29 08:59:16;;;;;;;1.60;0.82;;;19.10;90.30;;;;;;5052902;28;20074;-50
2021/05/29 09:01:41;;;;;;;4.30;1.83;;;18.90;90.10;;;;;;5053232;28;20029;-50
2021/05/29 09:04:08;;;;;;;2.30;0.95;;;19.00;89.70;;;;;;5053298;28;20056;-50
2021/05/29 09:06:34;;;;;;;1.75;1.10;;;18.80;90.20;;;;;;5050258;28;20033;-50
2021/05/29 09:09:09;;;;;;;1.30;0.75;;;18.70;90.40;;;;;;5053222;28;20040;-50
2021/05/29 09:11:45;;;;;;;10.27;6.63;;;19.10;90.20;;;;;;5052770;28;20037;-52
2021/05/29 09:14:35;;;;;;;2.08;0.98;;;19.10;88.80;;;;;;5014097;28;20043;-71
2021/05/29 09:17:21;;;;;;;3.72;1.00;;;19.10;89.60;;;;;;5011317;28;20030;-73
2021/05/29 09:20:05;;;;;;;2.05;0.85;;;19.00;87.10;;;;;;5011478;28;20049;-71
2021/05/29 09:22:56;;;;;;;3.88;0.95;;;19.30;88.90;;;;;;5026734;28;20034;-72
2021/05/29 09:25:24;;;;;;;2.20;0.98;;;19.10;86.00;;;;;;4997465;28;20034;-73
2021/05/29 09:28:02;;;;;;;1.67;0.80;;;19.30;86.00;;;;;;4993159;28;20049;-73
2021/05/29 09:30:45;;;;;;;2.10;0.80;;;19.10;85.80;;;;;;5008108;28;20026;-73
2021/05/29 09:33:22;;;;;;;1.63;0.80;;;19.30;85.30;;;;;;5005506;28;20065;-75
2021/05/29 09:36:02;;;;;;;2.40;1.20;;;19.20;84.10;;;;;;5011867;28;20034;-74
2021/05/29 09:38:40;;;;;;;2.00;0.90;;;19.50;84.10;;;;;;5013010;28;20507;-73
2021/05/29 09:41:28;;;;;;;2.13;1.00;;;19.90;82.30;;;;;;5027419;28;20054;-73
2021/05/29 09:43:59;;;;;;;1.45;0.77;;;20.00;78.80;;;;;;5011376;28;20558;-74
2021/05/29 09:46:26;;;;;;;1.27;0.70;;;19.90;79.00;;;;;;5012978;28;20037;-73
2021/05/29 09:49:00;;;;;;;1.20;0.70;;;20.10;78.30;;;;;;5012550;28;20064;-74
2021/05/29 09:51:31;;;;;;;4.25;1.05;;;19.90;80.80;;;;;;5012535;28;20037;-74
2021/05/29 09:54:09;;;;;;;4.38;2.17;;;19.80;79.30;;;;;;5012432;28;20026;-74
2021/05/29 09:56:41;;;;;;;2.67;0.70;;;20.10;79.00;;;;;;5012529;28;20386;-74
2021/05/29 09:59:09;;;;;;;1.60;0.73;;;20.30;72.00;;;;;;5012565;28;20036;-73
2021/05/29 10:01:54;;;;;;;1.25;0.63;;;20.20;74.80;;;;;;5010441;28;20164;-74
2021/05/29 10:04:40;;;;;;;1.85;0.70;;;20.10;72.90;;;;;;5012557;28;20033;-74
2021/05/29 10:07:10;;;;;;;1.60;0.68;;;20.30;71.20;;;;;;5012716;28;20041;-74
2021/05/29 10:09:36;;;;;;;2.60;0.90;;;20.40;74.20;;;;;;5027100;28;20092;-74
2021/05/29 10:12:04;;;;;;;1.95;0.90;;;20.50;75.70;;;;;;5027342;28;20375;-75
2021/05/29 10:14:31;;;;;;;1.67;0.70;;;20.70;74.00;;;;;;5029132;28;20052;-74
2021/05/29 10:17:07;;;;;;;5.38;0.70;;;20.60;72.50;;;;;;5032260;28;20045;-74
2021/05/29 10:19:33;;;;;;;1.35;0.55;;;21.00;72.90;;;;;;5031231;28;20033;-51
2021/05/29 10:22:17;;;;;;;2.25;1.02;;;20.40;70.80;;;;;;5032096;28;20041;-57
2021/05/29 10:24:47;;;;;;;2.38;1.15;;;20.70;74.50;;;;;;5032113;28;20041;-56
2021/05/29 10:27:25;;;;;;;1.70;0.88;;;20.90;68.90;;;;;;5030486;28;20552;-53
2021/05/29 10:29:59;;;;;;;2.25;0.93;;;21.00;69.00;;;;;;5030730;28;20038;-53
2021/05/29 10:32:25;;;;;;;1.17;0.60;;;20.80;72.00;;;;;;5031527;28;20034;-53
2021/05/29 10:35:07;;;;;;;1.40;0.68;;;20.80;70.40;;;;;;5031881;28;20143;-53
2021/05/29 10:37:51;;;;;;;1.33;0.57;;;20.40;68.50;;;;;;5013877;28;20041;-51
2021/05/29 10:40:25;;;;;;;2.28;1.38;;;20.70;69.30;;;;;;5030637;28;20026;-54
2021/05/29 10:43:03;;;;;;;3.53;1.02;;;21.00;68.90;;;;;;5031520;28;20417;-59
2021/05/29 10:45:30;;;;;;;1.98;0.90;;;21.20;69.10;;;;;;5032088;28;20038;-54
2021/05/29 10:48:16;;;;;;;1.15;0.70;;;21.20;68.20;;;;;;5031866;28;20044;-54
2021/05/29 10:50:58;;;;;;;1.10;0.70;;;21.20;68.40;;;;;;5031490;28;20049;-50
2021/05/29 10:53:47;;;;;;;0.98;0.73;;;21.40;68.90;;;;;;5035592;28;20029;-53
2021/05/29 10:56:18;;;;;;;2.42;0.70;;;21.50;68.10;;;;;;5035686;28;20040;-52
2021/05/29 10:59:15;;;;;;;1.05;0.65;;;21.70;67.60;;;;;;5035556;28;20044;-53
2021/05/29 11:01:42;;;;;;;1.40;0.77;;;21.80;67.30;;;;;;5035469;28;20032;-53
2021/05/29 11:04:18;;;;;;;3.70;1.10;;;21.60;69.20;;;;;;5035534;28;20029;-51
2021/05/29 11:06:52;;;;;;;1.33;0.68;;;21.60;69.70;;;;;;5035278;28;20099;-53
2021/05/29 11:09:30;;;;;;;1.27;0.70;;;21.80;68.50;;;;;;5035435;28;20033;-54
2021/05/29 11:12:01;;;;;;;1.77;0.90;;;21.70;67.10;;;;;;5035136;28;20037;-54
2021/05/29 11:14:52;;;;;;;0.73;0.50;;;21.70;68.10;;;;;;5035294;28;20057;-51
2021/05/29 11:17:30;;;;;;;1.95;0.70;;;21.70;66.30;;;;;;5037893;28;20603;-49
2021/05/29 11:20:20;;;;;;;1.83;0.68;;;21.80;65.80;;;;;;5035226;28;20037;-48
2021/05/29 11:22:50;;;;;;;1.40;0.70;;;21.70;66.00;;;;;;5034966;28;20025;-52
2021/05/29 11:25:19;;;;;;;1.17;0.57;;;21.40;66.90;;;;;;5033503;28;20037;-49
2021/05/29 11:27:47;;;;;;;1.77;0.93;;;21.40;67.70;;;;;;5034532;28;20052;-49
2021/05/29 11:30:14;;;;;;;1.02;0.70;;;21.60;67.70;;;;;;5034898;28;20090;-53
2021/05/29 11:35:47;;;;;;;1.23;0.70;;;22.60;65.10;;;;;;5034883;28;20033;-52
2021/05/29 11:38:30;;;;;;;1.60;0.60;;;22.00;64.60;;;;;;5034895;28;20359;-53
2021/05/29 11:41:11;;;;;;;1.35;0.65;;;22.30;64.70;;;;;;5034826;28;20061;-49
2021/05/29 11:43:54;;;;;;;1.25;0.60;;;22.30;64.20;;;;;;5034882;28;20498;-51
2021/05/29 11:46:28;;;;;;;1.00;0.60;;;22.50;63.10;;;;;;5034715;28;20046;-53
2021/05/29 11:49:06;;;;;;;2.92;0.80;;;22.80;62.60;;;;;;5034731;28;20111;-52
2021/05/29 11:51:37;;;;;;;3.50;0.70;;;22.90;63.70;;;;;;5033404;28;20079;-51
2021/05/29 11:54:11;;;;;;;3.35;1.05;;;22.70;64.60;;;;;;5033050;28;20030;-74
2021/05/29 11:56:47;;;;;;;0.70;0.57;;;23.00;63.90;;;;;;5017155;28;20064;-79
2021/05/29 11:59:19;;;;;;;1.70;0.73;;;23.00;63.10;;;;;;5033442;28;20064;-82
2021/05/29 12:01:52;;;;;;;1.05;0.55;;;23.30;62.60;;;;;;5034468;28;20141;-80
2021/05/29 12:04:28;;;;;;;4.00;0.70;;;23.30;61.60;;;;;;5032043;28;20445;-79
2021/05/29 12:06:59;;;;;;;1.00;0.70;;;22.90;59.70;;;;;;5034619;28;20033;-79
2021/05/29 12:09:30;;;;;;;0.77;0.52;;;22.90;59.80;;;;;;5033501;28;20109;-80
2021/05/29 12:12:05;;;;;;;1.05;0.70;;;23.10;58.70;;;;;;5032887;28;20038;-77
2021/05/29 12:14:34;;;;;;;1.52;0.80;;;23.40;60.20;;;;;;5033044;28;20037;-77
2021/05/29 12:17:17;;;;;;;1.42;0.60;;;23.90;60.60;;;;;;5033098;28;20386;-79
2021/05/29 12:19:45;;;;;;;2.80;0.73;;;23.90;59.10;;;;;;5034123;28;20452;-76
2021/05/29 12:22:12;;;;;;;1.25;0.55;;;23.60;57.40;;;;;;5034071;28;20150;-78
2021/05/29 12:24:48;;;;;;;1.02;0.50;;;23.70;57.10;;;;;;5032682;28;20063;-75
2021/05/29 12:27:19;;;;;;;0.70;0.50;;;23.60;57.10;;;;;;5032574;28;20136;-75
2021/05/29 12:29:46;;;;;;;2.85;0.60;;;23.30;59.20;;;;;;5016573;28;20437;-75
2021/05/29 12:32:39;;;;;;;1.88;0.70;;;24.00;60.50;;;;;;5032302;28;20052;-75
2021/05/29 12:35:26;;;;;;;2.95;0.77;;;24.20;55.10;;;;;;5032858;28;20109;-75
2021/05/29 12:37:52;;;;;;;1.73;0.55;;;23.60;55.70;;;;;;5032688;28;20038;-76
2021/05/29 12:40:18;;;;;;;1.10;0.45;;;23.90;56.20;;;;;;5034401;28;20087;-76
2021/05/29 12:42:49;;;;;;;2.28;0.60;;;24.40;55.30;;;;;;5030057;28;20079;-66
2021/05/29 12:45:31;;;;;;;;;;;24.40;60.30;;;;;;5033696;28;20033;-69
2021/05/29 12:48:05;;;;;;;1.75;0.50;;;24.10;54.20;;;;;;5047545;28;20328;-68
2021/05/29 12:51:00;;;;;;;1.45;0.60;;;24.00;54.20;;;;;;5032229;28;20060;-68
2021/05/29 12:53:34;;;;;;;1.50;0.60;;;23.80;55.00;;;;;;5033576;28;20037;-69
2021/05/29 12:56:13;;;;;;;1.38;0.60;;;24.10;54.80;;;;;;5015652;28;20112;-69
2021/05/29 12:58:39;;;;;;;1.05;0.50;;;24.10;55.40;;;;;;5033544;28;20065;-69
2021/05/29 13:10:18;;;;;;;0.60;0.40;;;23.90;53.40;;;;;;5035657;28;20059;-70
2021/05/29 13:13:06;;;;;;;1.30;0.50;;;24.00;53.60;;;;;;5031811;28;20041;-68
2021/05/29 13:15:33;;;;;;;0.63;0.50;;;24.30;51.50;;;;;;5032671;28;20026;-69
2021/05/29 13:18:31;;;;;;;1.05;0.68;;;24.50;51.60;;;;;;5032024;28;20036;-68
2021/05/29 13:21:05;;;;;;;2.42;0.70;;;24.60;51.90;;;;;;5034079;28;20037;-68
2021/05/29 13:23:43;;;;;;;0.93;0.50;;;24.20;52.30;;;;;;5032867;28;20029;-67